Toronto, Ontario

11:04 PM EDT on July 30, 2015 (GMT -0400)
Toronto-City Centre | | Change Station
CLOSE
Current Station
Airport
Location: Toronto,
Elevation: 253 ft
Nearby Weather Stations
Active Advisory: Special Weather Statement

Elev 253 ft 43.63 °N, 79.40 °W | Updated 4 minutes ago

Clear
Clear
68 °F
Feels Like 68 °F
N
8
Wind Variable Wind from West

Today
High -- | Low -- °F
--% Chance of Precip.
Yesterday
High -- | Low -- °F
Precip. -- in
6:04 AM 8:43 PM
Full, 100% visible
Pressure 29.84 in
Visibility 9.0 miles
Clouds Clear
Dew Point 55 °F
Humidity 64%
Rainfall 0.00 in
Snow Depth Not available.
UV 0 out of 12
Pollen Not available.
Air Quality Not available.
Flu Activity Not available.
METAR CYTZ 310300Z AUTO 26007KT 9SM CLR 20/13 A2984 RMK SLP105 DENSITY ALT 900FT

More Conditions Fewer Conditions

Pressure 29.84 in
Visibility 9.0 miles
Clouds Clear
Dew Point 55 °F
Humidity 64%
Rainfall 0.00 in
Snow Depth Not available.
UV 0 out of 12
Pollen Not available.
Air Quality Not available.
Flu Activity Not available.
METAR CYTZ 310300Z AUTO 26007KT 9SM CLR 20/13 A2984 RMK SLP105 DENSITY ALT 900FT

More Conditions Fewer Conditions

10-Day Weather Forecast

×

Almanac

Astronomy

Jul. 30, 2015 Rise Set
Actual Time
Civil Twilight
Nautical Twilight
Astronomical Twilight
Moon
Length of Visible Light
Length of Day
Tomorrow will be .
, % of the Moon is Illuminated

Today's Extremes

Country Highs Country Lows

Community

WunderPhotos

Upload Photos

1,842,594 photos uploaded!

WunderBlogs® & News

Nearby

Air Quality

  Air Quality AQ Index Pollutant
Not available.

Snow Depth

Station Depth Elevation

Earthquake Activity

City Distance Mag. Time & Date
Minimum magnitude displayed is 2.5.

Coastal Water Temperatures

Place Temperature

Stations

Nearby Weather Stations

Station Location Temp. Windchill Dew Point Humidity Wind Precip. Elev Updated Type
                   
Special Weather Statement
heat warning
for southern Ontario
ended by Environment Canada
at 6:21 p.M. EDT Thursday 30 July 2015.
---------------------------------------------------------------------
Heat warning ended for:
      City of Toronto
      Niagara
      City of Hamilton
      Halton - Peel
      York - Durham
      Belleville - Quinte - Northumberland
      Kingston - Prince Edward
      Stirling - Tweed - South Frontenac
      Brockville - Leeds and Grenville
      City of Ottawa
      Gatineau
      Prescott and Russell
      Cornwall - Morrisburg
      Smiths Falls - Lanark - Sharbot Lake.

---------------------------------------------------------------------
==Discussion==

Conditions are no longer expected to reach heat warning criteria.

Http://weather.Gc.CA/warnings/index(underscore)e.Html?Prov=son

End/MSC